createdAt,value
2022-11-16T00:01:03.692Z,99891.44
2022-11-16T00:04:06.331Z,99892.50
2022-11-16T00:07:08.796Z,99894.16
2022-11-16T00:10:12.053Z,99894.16
2022-11-16T00:13:14.419Z,99889.69
2022-11-16T00:16:18.204Z,99864.91
2022-11-16T00:19:20.534Z,99884.09
2022-11-16T00:22:23.093Z,99879.75
2022-11-16T00:25:25.332Z,99851.72
2022-11-16T00:28:28.504Z,99877.50
2022-11-16T00:31:31.174Z,99879.16
2022-11-16T00:34:33.891Z,99872.56
2022-11-16T00:37:36.353Z,99871.44
2022-11-16T00:40:38.900Z,99865.84
2022-11-16T00:43:41.234Z,99843.22
2022-11-16T00:46:44.200Z,99848.19
2022-11-16T00:49:46.395Z,99835.19
2022-11-16T00:52:48.902Z,99837.19
2022-11-16T00:55:51.127Z,99833.84
2022-11-16T00:58:54.512Z,99817.31
2022-11-16T01:01:56.881Z,99820.34
2022-11-16T01:04:59.414Z,99829.41
2022-11-16T01:08:01.698Z,99825.59
2022-11-16T01:11:25.950Z,99828.88
2022-11-16T01:14:28.231Z,99816.13
2022-11-16T01:17:30.772Z,99815.53
2022-11-16T01:20:32.987Z,99796.19
2022-11-16T01:23:35.600Z,99786.56
2022-11-16T01:26:37.985Z,99801.69
2022-11-16T01:29:41.211Z,99799.44
2022-11-16T01:32:44.012Z,99779.09
2022-11-16T01:35:46.907Z,99796.69
2022-11-16T01:38:50.695Z,99791.16
2022-11-16T01:41:53.689Z,99765.84
2022-11-16T01:45:43.989Z,99757.03
2022-11-16T01:48:52.842Z,99772.59
2022-11-16T01:52:03.050Z,99765.13
2022-11-16T01:55:07.128Z,99761.59
2022-11-16T01:58:17.372Z,99738.78
2022-11-16T02:01:20.786Z,99754.94
2022-11-16T02:04:24.072Z,99732.66
2022-11-16T02:07:57.716Z,99752.66
2022-11-16T02:11:21.752Z,99723.44
2022-11-16T02:14:42.334Z,99735.22
2022-11-16T02:17:45.745Z,99740.53
2022-11-16T02:21:06.935Z,99740.84
2022-11-16T02:24:23.294Z,99715.69
2022-11-16T02:27:44.717Z,99728.63
2022-11-16T02:30:50.708Z,99723.38
2022-11-16T02:33:56.198Z,99720.03
2022-11-16T02:37:01.667Z,99697.16
2022-11-16T02:40:07.959Z,99705.31
2022-11-16T02:43:15.518Z,99708.06
2022-11-16T02:46:29.606Z,99702.84
2022-11-16T02:49:36.438Z,99709.72
2022-11-16T02:52:39.004Z,99700.91
2022-11-16T02:55:41.707Z,99694.25
2022-11-16T02:58:44.334Z,99689.00
2022-11-16T03:02:17.086Z,99682.84
2022-11-16T03:05:32.120Z,99681.97
2022-11-16T03:08:39.998Z,99690.56
2022-11-16T03:12:00.205Z,99660.59
2022-11-16T03:15:06.042Z,99676.44
2022-11-16T03:18:09.108Z,99676.00
2022-11-16T03:21:18.308Z,99655.44
2022-11-16T03:24:20.858Z,99676.50
2022-11-16T03:27:47.823Z,99667.09
2022-11-16T03:30:56.192Z,99670.88
2022-11-16T03:34:03.850Z,99645.03
2022-11-16T03:37:06.543Z,99638.38
2022-11-16T03:40:12.705Z,99657.06
2022-11-16T03:43:15.888Z,99634.50
2022-11-16T03:46:18.842Z,99654.75
2022-11-16T03:49:22.946Z,99629.84
2022-11-16T03:52:26.843Z,99643.22
2022-11-16T03:55:29.165Z,99643.75
2022-11-16T03:58:32.126Z,99616.75
2022-11-16T04:01:34.797Z,99639.94
2022-11-16T04:04:56.650Z,99636.66
2022-11-16T04:08:17.770Z,99637.69
2022-11-16T04:11:40.931Z,99628.78
2022-11-16T04:15:02.911Z,99600.16
2022-11-16T04:18:24.532Z,99610.47
2022-11-16T04:21:50.261Z,99610.78
2022-11-16T04:25:00.598Z,99609.34
2022-11-16T04:28:13.305Z,99607.19
2022-11-16T04:31:34.706Z,99608.00
2022-11-16T04:34:56.034Z,99600.31
2022-11-16T04:37:59.826Z,99595.06
2022-11-16T04:41:02.725Z,99599.16
2022-11-16T04:44:05.534Z,99598.34
2022-11-16T04:47:09.621Z,99598.56
2022-11-16T04:50:12.693Z,99590.78
2022-11-16T04:53:15.889Z,99593.84
2022-11-16T04:56:19.038Z,99591.09
2022-11-16T04:59:22.334Z,99578.34
2022-11-16T05:02:25.589Z,99578.03
2022-11-16T05:05:28.379Z,99587.72
2022-11-16T05:08:31.690Z,99591.63
2022-11-16T05:11:34.872Z,99571.59
2022-11-16T05:14:38.211Z,99570.84
2022-11-16T05:17:40.659Z,99586.69
2022-11-16T05:21:02.733Z,99582.78
2022-11-16T05:24:24.331Z,99583.31
2022-11-16T05:27:28.967Z,99560.59
2022-11-16T05:30:31.228Z,99563.28
2022-11-16T05:33:34.288Z,99569.94
2022-11-16T05:36:37.058Z,99562.47
2022-11-16T05:39:40.144Z,99564.63
2022-11-16T05:42:42.477Z,99555.06
2022-11-16T05:45:45.315Z,99540.19
2022-11-16T05:48:49.690Z,99553.66
2022-11-16T05:51:52.669Z,99551.41
2022-11-16T05:54:55.062Z,99548.31
2022-11-16T05:57:57.942Z,99528.63
2022-11-16T06:01:00.304Z,99517.84
2022-11-16T06:04:03.159Z,99543.59
2022-11-16T06:07:05.893Z,99533.38
2022-11-16T06:10:10.005Z,99542.78
2022-11-16T06:13:13.643Z,99532.84
2022-11-16T06:16:16.731Z,99540.31
2022-11-16T06:19:18.973Z,99518.38
2022-11-16T06:22:21.786Z,99537.34
2022-11-16T06:25:24.151Z,99519.56
2022-11-16T06:28:27.714Z,99534.88
2022-11-16T06:31:30.229Z,99540.94
2022-11-16T06:34:33.971Z,99543.19
2022-11-16T06:37:37.508Z,99544.59
2022-11-16T06:40:40.659Z,99528.22
2022-11-16T06:43:43.291Z,99524.94
2022-11-16T06:46:46.248Z,99525.28
2022-11-16T06:49:48.865Z,99524.34
2022-11-16T06:52:52.150Z,99523.75
2022-11-16T06:55:55.470Z,99499.66
2022-11-16T06:58:58.251Z,99518.13
2022-11-16T07:02:00.932Z,99516.19
2022-11-16T07:05:04.997Z,99505.44
2022-11-16T07:08:08.124Z,99506.56
2022-11-16T07:11:11.315Z,99509.44
2022-11-16T07:14:13.944Z,99486.38
2022-11-16T07:17:16.823Z,99496.72
2022-11-16T07:20:19.435Z,99499.69
2022-11-16T07:23:22.673Z,99485.84
2022-11-16T07:26:25.438Z,99504.50
2022-11-16T07:29:28.656Z,99497.56
2022-11-16T07:32:35.954Z,99495.59
2022-11-16T07:35:39.348Z,99477.03
2022-11-16T07:38:41.896Z,99492.75
2022-11-16T07:41:45.252Z,99489.41
2022-11-16T07:44:48.772Z,99463.50
2022-11-16T07:47:53.385Z,99484.97
2022-11-16T07:51:06.043Z,99460.22
2022-11-16T07:54:14.575Z,99477.47
2022-11-16T07:57:17.406Z,99477.59
2022-11-16T08:00:20.106Z,99478.72
2022-11-16T08:03:24.893Z,99468.06
2022-11-16T08:06:30.140Z,99461.91
2022-11-16T08:09:34.805Z,99452.06
2022-11-16T08:12:37.494Z,99459.94
2022-11-16T08:15:41.081Z,99460.06
2022-11-16T08:18:45.000Z,99468.19
2022-11-16T08:21:48.495Z,99467.53
2022-11-16T08:24:51.043Z,99471.94
2022-11-16T08:27:54.848Z,99461.59
2022-11-16T08:30:59.321Z,99457.09
2022-11-16T08:34:01.969Z,99454.22
2022-11-16T08:37:04.550Z,99434.41
2022-11-16T08:40:08.669Z,99456.06
2022-11-16T08:43:11.489Z,99461.28
2022-11-16T08:46:14.644Z,99457.72
2022-11-16T08:49:18.494Z,99443.16
2022-11-16T08:52:21.745Z,99454.00
2022-11-16T08:55:25.156Z,99449.91
2022-11-16T08:58:27.943Z,99452.06
2022-11-16T09:01:31.457Z,99439.34
2022-11-16T09:04:36.999Z,99448.34
2022-11-16T09:07:40.720Z,99444.87
2022-11-16T09:10:43.402Z,99426.53
2022-11-16T09:13:47.385Z,99424.78
2022-11-16T09:16:49.906Z,99443.25
2022-11-16T09:19:52.209Z,99434.19
2022-11-16T09:22:54.716Z,99431.75
2022-11-16T09:26:01.568Z,99434.28
2022-11-16T09:29:04.473Z,99444.16
2022-11-16T09:32:06.938Z,99440.84
2022-11-16T09:35:09.891Z,99421.81
2022-11-16T09:38:16.159Z,99415.13
2022-11-16T09:42:08.406Z,99427.13
2022-11-16T09:45:45.799Z,99421.47
2022-11-16T09:48:50.111Z,99410.25
2022-11-16T09:52:00.574Z,99390.87
2022-11-16T09:55:26.403Z,99398.47
2022-11-16T09:58:35.128Z,99397.53
2022-11-16T10:01:50.321Z,99413.22
2022-11-16T10:05:02.961Z,99406.37
2022-11-16T10:08:18.685Z,99387.50
2022-11-16T10:11:33.412Z,99389.84
2022-11-16T10:14:52.092Z,99380.19
2022-11-16T10:18:29.678Z,99377.91
2022-11-16T10:21:50.089Z,99375.84
2022-11-16T10:25:16.618Z,99372.16
2022-11-16T10:28:21.891Z,99359.66
2022-11-16T10:31:37.726Z,99363.31
2022-11-16T10:35:17.027Z,99360.47
2022-11-16T10:38:28.372Z,99352.34
2022-11-16T10:41:40.180Z,99344.47
2022-11-16T10:44:51.716Z,99337.00
2022-11-16T10:48:07.862Z,99332.59
2022-11-16T10:51:10.690Z,99349.16
2022-11-16T10:54:14.269Z,99344.03
2022-11-16T10:57:17.933Z,99335.22
2022-11-16T11:00:46.882Z,99323.94
2022-11-16T11:03:50.827Z,99322.06
2022-11-16T11:07:23.335Z,99323.50
2022-11-16T11:10:33.526Z,99316.00
2022-11-16T11:13:35.975Z,99278.94
2022-11-16T11:16:41.390Z,99275.38
2022-11-16T11:19:43.648Z,99267.06
2022-11-16T11:22:56.241Z,99286.72
2022-11-16T11:26:00.489Z,99281.38
2022-11-16T11:29:25.069Z,99287.34
2022-11-16T11:32:34.278Z,99288.88
2022-11-16T11:35:36.982Z,99276.16
2022-11-16T11:39:15.952Z,99276.91
2022-11-16T11:42:23.288Z,99270.59
2022-11-16T11:45:32.517Z,99277.78
2022-11-16T11:48:57.749Z,99255.34
2022-11-16T11:52:17.322Z,99253.13
2022-11-16T11:55:19.918Z,99252.78
2022-11-16T11:58:26.391Z,99252.97
2022-11-16T12:02:08.089Z,99238.25
2022-11-16T12:05:28.346Z,99246.66
2022-11-16T12:08:30.496Z,99248.91
2022-11-16T12:11:45.403Z,99245.81
2022-11-16T12:15:13.591Z,99247.28
2022-11-16T12:18:34.648Z,99259.00
2022-11-16T12:21:58.490Z,99254.94
2022-11-16T12:25:27.373Z,99249.25
2022-11-16T12:28:51.692Z,99246.28
2022-11-16T12:32:03.077Z,99247.09
2022-11-16T12:35:33.664Z,99245.66
2022-11-16T12:39:01.056Z,99248.09
2022-11-16T12:42:40.536Z,99243.56
2022-11-16T12:46:05.010Z,99234.09
2022-11-16T12:49:31.844Z,99229.75
2022-11-16T12:52:50.169Z,99221.13
2022-11-16T12:56:27.618Z,99221.13
2022-11-16T12:59:33.077Z,99209.34
2022-11-16T13:02:41.041Z,99213.63
2022-11-16T13:05:56.062Z,99215.56
2022-11-16T13:09:11.116Z,99198.22
2022-11-16T13:12:17.416Z,99217.53
2022-11-16T13:15:22.376Z,99207.34
2022-11-16T13:18:26.589Z,99201.31
2022-11-16T13:21:47.860Z,99216.37
2022-11-16T13:25:20.225Z,99214.75
2022-11-16T13:28:33.637Z,99208.03
2022-11-16T13:31:48.451Z,99201.37
2022-11-16T13:34:52.396Z,99210.34
2022-11-16T13:37:55.054Z,99193.00
2022-11-16T13:41:46.267Z,99218.66
2022-11-16T13:44:51.525Z,99211.78
2022-11-16T13:47:56.830Z,99215.09
2022-11-16T13:51:05.975Z,99190.38
2022-11-16T13:57:36.431Z,99203.94
2022-11-16T14:00:40.694Z,99197.41
2022-11-16T14:03:45.948Z,99199.66
2022-11-16T14:06:48.202Z,99197.41
2022-11-16T14:09:50.809Z,99196.88
2022-11-16T14:12:57.157Z,99192.50
2022-11-16T14:16:15.001Z,99193.97
2022-11-16T14:19:49.143Z,99194.13
2022-11-16T14:23:01.163Z,99190.19
2022-11-16T14:26:17.226Z,99178.28
2022-11-16T14:29:39.995Z,99187.56
2022-11-16T14:32:52.423Z,99186.59
2022-11-16T14:35:55.076Z,99179.25
2022-11-16T14:39:19.887Z,99175.66
2022-11-16T14:42:38.160Z,99177.44
2022-11-16T14:46:09.378Z,99181.69
2022-11-16T14:49:16.134Z,99161.41
2022-11-16T14:52:25.531Z,99181.22
2022-11-16T14:55:28.766Z,99172.59
2022-11-16T14:58:30.978Z,99166.25
2022-11-16T15:01:37.033Z,99166.41
2022-11-16T15:04:39.426Z,99164.28
2022-11-16T15:07:43.173Z,99144.03
2022-11-16T15:10:52.146Z,99141.06
2022-11-16T15:13:55.644Z,99139.59
2022-11-16T15:16:59.569Z,99135.19
2022-11-16T15:20:14.206Z,99152.69
2022-11-16T15:23:17.383Z,99150.56
2022-11-16T15:26:23.893Z,99139.59
2022-11-16T15:29:26.189Z,99148.47
2022-11-16T15:32:28.849Z,99148.34
2022-11-16T15:35:32.797Z,99151.53
2022-11-16T15:38:37.587Z,99148.16
2022-11-16T15:41:40.382Z,99128.50
2022-11-16T15:44:44.114Z,99149.63
2022-11-16T15:47:47.415Z,99144.50
2022-11-16T15:51:20.063Z,99143.56
2022-11-16T15:54:26.604Z,99148.47
2022-11-16T15:57:29.224Z,99149.78
2022-11-16T16:00:35.142Z,99154.19
2022-11-16T16:03:38.653Z,99135.06
2022-11-16T16:06:57.231Z,99141.59
2022-11-16T16:10:24.389Z,99139.78
2022-11-16T16:13:48.490Z,99118.53
2022-11-16T16:16:57.265Z,99118.22
2022-11-16T16:20:05.694Z,99136.19
2022-11-16T16:23:12.846Z,99120.53
2022-11-16T16:26:16.667Z,99127.16
2022-11-16T16:29:19.204Z,99117.72
2022-11-16T16:32:36.916Z,99135.00
2022-11-16T16:35:39.475Z,99123.41
2022-11-16T16:38:41.697Z,99137.16
2022-11-16T16:41:44.505Z,99115.63
2022-11-16T16:44:48.013Z,99131.66
2022-11-16T16:47:50.576Z,99128.69
2022-11-16T16:50:52.838Z,99125.44
2022-11-16T16:53:55.410Z,99114.50
2022-11-16T16:56:58.073Z,99113.38
2022-11-16T17:00:00.726Z,99112.22
2022-11-16T17:03:03.036Z,99132.03
2022-11-16T17:06:05.838Z,99127.59
2022-11-16T17:09:08.080Z,99132.31
2022-11-16T17:12:11.115Z,99132.16
2022-11-16T17:15:19.046Z,99123.34
2022-11-16T17:18:22.644Z,99098.84
2022-11-16T17:21:24.938Z,99121.88
2022-11-16T17:24:27.476Z,99121.34
2022-11-16T17:27:30.735Z,99115.81
2022-11-16T17:30:33.222Z,99113.84
2022-11-16T17:33:40.302Z,99107.00
2022-11-16T17:36:43.303Z,99120.53
2022-11-16T17:39:45.524Z,99095.06
2022-11-16T17:42:49.596Z,99110.25
2022-11-16T17:45:51.977Z,99110.91
2022-11-16T17:48:54.741Z,99105.38
2022-11-16T17:51:57.284Z,99085.75
2022-11-16T17:54:59.835Z,99105.06
2022-11-16T17:58:02.469Z,99109.13
2022-11-16T18:01:05.371Z,99100.81
2022-11-16T18:04:08.175Z,99102.28
2022-11-16T18:07:10.677Z,99100.31
2022-11-16T18:10:17.950Z,99106.72
2022-11-16T18:13:21.805Z,99097.91
2022-11-16T18:16:27.627Z,99095.00
2022-11-16T18:19:29.955Z,99092.72
2022-11-16T18:22:32.658Z,99096.00
2022-11-16T18:25:36.888Z,99095.81
2022-11-16T18:28:41.182Z,99089.47
2022-11-16T18:31:43.697Z,99089.59
2022-11-16T18:34:46.591Z,99091.88
2022-11-16T18:37:48.909Z,99088.47
2022-11-16T18:41:04.483Z,99087.47
2022-11-16T18:44:07.932Z,99071.13
2022-11-16T18:47:10.544Z,99088.47
2022-11-16T18:50:19.009Z,99089.91
2022-11-16T18:53:24.013Z,99070.28
2022-11-16T18:56:27.237Z,99093.19
2022-11-16T18:59:29.835Z,99085.38
2022-11-16T19:02:32.168Z,99088.47
2022-11-16T19:05:34.777Z,99073.25
2022-11-16T19:08:38.650Z,99096.63
2022-11-16T19:11:41.375Z,99087.16
2022-11-16T19:14:43.623Z,99087.97
2022-11-16T19:18:14.233Z,99068.25
2022-11-16T19:21:11.051Z,99085.72
2022-11-16T19:24:13.667Z,99067.91
2022-11-16T19:27:16.735Z,99075.62
2022-11-16T19:30:19.530Z,99064.34
2022-11-16T19:33:21.790Z,99082.16
2022-11-16T19:36:25.557Z,99083.25
2022-11-16T19:39:27.832Z,99052.59
2022-11-16T19:42:30.636Z,99071.34
2022-11-16T19:45:32.835Z,99065.63
2022-11-16T19:48:38.337Z,99067.59
2022-11-16T19:51:40.586Z,99046.06
2022-11-16T19:54:43.065Z,99067.09
2022-11-16T19:57:45.478Z,99066.94
2022-11-16T20:00:48.110Z,99050.59
2022-11-16T20:03:51.058Z,99062.19
2022-11-16T20:06:53.356Z,99058.13
2022-11-16T20:09:56.012Z,99062.87
2022-11-16T20:13:01.089Z,99048.97
2022-11-16T20:16:03.681Z,99067.56
2022-11-16T20:19:07.058Z,99062.16
2022-11-16T20:22:09.657Z,99075.38
2022-11-16T20:25:11.914Z,99058.72
2022-11-16T20:28:14.418Z,99066.94
2022-11-16T20:31:21.937Z,99073.09
2022-11-16T20:34:24.977Z,99064.13
2022-11-16T20:37:27.219Z,99075.09
2022-11-16T20:40:29.877Z,99042.13
2022-11-16T20:43:32.384Z,99056.22
2022-11-16T20:46:36.724Z,99026.00
2022-11-16T20:49:39.011Z,99051.66
2022-11-16T20:52:44.306Z,99051.00
2022-11-16T20:55:49.978Z,99034.03
2022-11-16T20:58:52.556Z,99047.41
2022-11-16T21:01:55.297Z,99053.12
2022-11-16T21:05:00.501Z,99039.56
2022-11-16T21:08:02.923Z,99059.16
2022-11-16T21:11:13.656Z,99040.69
2022-11-16T21:14:15.887Z,99059.16
2022-11-16T21:17:18.680Z,99049.53
2022-11-16T21:20:27.347Z,99043.84
2022-11-16T21:23:32.479Z,99050.34
2022-11-16T21:26:35.535Z,99045.81
2022-11-16T21:29:38.065Z,99036.69
2022-11-16T21:32:40.363Z,99015.63
2022-11-16T21:35:42.808Z,99031.44
2022-11-16T21:38:46.021Z,99031.78
2022-11-16T21:41:48.646Z,99006.31
2022-11-16T21:44:51.011Z,99025.06
2022-11-16T21:47:53.620Z,99025.25
2022-11-16T21:51:16.513Z,99016.47
2022-11-16T21:54:19.235Z,99007.00
2022-11-16T21:57:21.836Z,98999.81
2022-11-16T22:00:25.398Z,98998.84
2022-11-16T22:03:29.872Z,98992.47
2022-11-16T22:06:50.592Z,98990.34
2022-11-16T22:09:53.217Z,98994.75
2022-11-16T22:12:55.424Z,98998.84
2022-11-16T22:15:57.953Z,99000.00
2022-11-16T22:19:00.322Z,98978.25
2022-11-16T22:22:03.054Z,98997.22
2022-11-16T22:25:05.974Z,98999.12
2022-11-16T22:28:23.964Z,98991.94
2022-11-16T22:31:26.265Z,99014.66
2022-11-16T22:34:28.769Z,99008.09
2022-11-16T22:37:31.417Z,99017.25
2022-11-16T22:40:33.984Z,99015.47
2022-11-16T22:43:37.388Z,99011.56
2022-11-16T22:46:41.043Z,99022.47
2022-11-16T22:49:43.291Z,99022.62
2022-11-16T22:52:45.944Z,98994.25
2022-11-16T22:55:48.145Z,98999.12
2022-11-16T22:58:50.645Z,99013.19
2022-11-16T23:01:52.942Z,99004.38
2022-11-16T23:04:55.419Z,99008.31
2022-11-16T23:07:57.838Z,99019.38
2022-11-16T23:11:19.956Z,99014.00
2022-11-16T23:14:41.126Z,99012.88
2022-11-16T23:17:45.374Z,99003.06
2022-11-16T23:21:06.062Z,98976.47
2022-11-16T23:24:31.550Z,98989.72
2022-11-16T23:27:51.477Z,98961.47
2022-11-16T23:30:54.026Z,99003.56
2022-11-16T23:33:56.273Z,98985.63
2022-11-16T23:37:03.345Z,98989.03
2022-11-16T23:40:06.082Z,99001.94
2022-11-16T23:43:28.876Z,98996.38
2022-11-16T23:46:32.432Z,98991.31
2022-11-16T23:49:34.965Z,99006.50
2022-11-16T23:52:37.203Z,98983.47
2022-11-16T23:55:40.181Z,98981.38
2022-11-16T23:58:42.435Z,99003.25
